Time,TemperatureF,DewpointF,PressureIn,WindDirection,WindDirectionDegrees,WindSpeedMPH,WindSpeedGustMPH,Humidity,HourlyPrecipIn,Conditions,Clouds,dailyrainin,SoftwareType,DateUTC
2013-09-03 00:11:00,67.3,67.0,29.98,SW,215,0.0,2.0,97,0.08,,,0.08,weatherlink.com 1.10,2013-09-03 04:11:00,
2013-09-03 00:26:00,66.9,66.0,29.94,SW,215,0.0,1.0,97,0.08,,,0.08,weatherlink.com 1.10,2013-09-03 04:26:00,
2013-09-03 00:41:00,66.6,66.0,29.95,SW,217,1.0,3.0,98,0.08,,,0.08,weatherlink.com 1.10,2013-09-03 04:41:00,
2013-09-03 00:57:00,66.3,66.0,29.95,SW,217,0.0,1.0,98,0.04,,,0.08,weatherlink.com 1.10,2013-09-03 04:57:00,
2013-09-03 01:12:00,65.9,65.0,29.94,SW,217,0.0,0.0,97,0.02,,,0.10,weatherlink.com 1.10,2013-09-03 05:12:00,
2013-09-03 01:27:00,65.3,65.0,29.93,SW,217,0.0,2.0,98,0.02,,,0.10,weatherlink.com 1.10,2013-09-03 05:27:00,
2013-09-03 01:42:00,65.0,65.0,29.92,SW,217,0.0,0.0,98,0.02,,,0.10,weatherlink.com 1.10,2013-09-03 05:42:00,
2013-09-03 01:57:00,65.0,65.0,29.93,SW,217,0.0,1.0,98,0.01,,,0.10,weatherlink.com 1.10,2013-09-03 05:57:00,
2013-09-03 02:12:00,64.9,64.0,29.92,SW,217,0.0,1.0,98,0.00,,,0.10,weatherlink.com 1.10,2013-09-03 06:12:00,
2013-09-03 02:27:00,64.6,64.0,29.91,SW,217,0.0,0.0,98,0.00,,,0.10,weatherlink.com 1.10,2013-09-03 06:27:00,
2013-09-03 02:42:00,64.3,64.0,29.92,SW,217,0.0,0.0,98,0.00,,,0.10,weatherlink.com 1.10,2013-09-03 06:42:00,
2013-09-03 02:57:00,64.0,64.0,29.92,SW,217,0.0,0.0,98,0.00,,,0.10,weatherlink.com 1.10,2013-09-03 06:57:00,
2013-09-03 03:12:00,63.8,63.0,29.91,SW,217,0.0,0.0,98,0.00,,,0.10,weatherlink.com 1.10,2013-09-03 07:12:00,
2013-09-03 03:27:00,63.7,63.0,29.92,SW,217,0.0,0.0,98,0.00,,,0.10,weatherlink.com 1.10,2013-09-03 07:27:00,
2013-09-03 03:42:00,63.7,64.0,29.91,SW,217,0.0,1.0,99,0.00,,,0.10,weatherlink.com 1.10,2013-09-03 07:42:00,
2013-09-03 03:57:00,63.8,64.0,29.92,SSW,199,0.0,3.0,99,0.00,,,0.10,weatherlink.com 1.10,2013-09-03 07:57:00,
2013-09-03 04:12:00,64.5,64.0,29.92,South,176,0.0,3.0,99,0.00,,,0.10,weatherlink.com 1.10,2013-09-03 08:12:00,
2013-09-03 04:27:00,64.7,64.0,29.92,South,176,0.0,1.0,99,0.00,,,0.10,weatherlink.com 1.10,2013-09-03 08:27:00,
2013-09-03 04:42:00,64.9,65.0,29.92,South,176,0.0,1.0,99,0.00,,,0.10,weatherlink.com 1.10,2013-09-03 08:42:00,
2013-09-03 04:57:00,65.0,65.0,29.93,South,176,0.0,0.0,99,0.00,,,0.10,weatherlink.com 1.10,2013-09-03 08:57:00,
2013-09-03 05:12:00,65.1,65.0,29.93,South,176,0.0,1.0,99,0.00,,,0.10,weatherlink.com 1.10,2013-09-03 09:12:00,
2013-09-03 05:27:00,65.2,65.0,29.93,South,176,0.0,1.0,99,0.00,,,0.10,weatherlink.com 1.10,2013-09-03 09:27:00,
2013-09-03 05:42:00,65.3,65.0,29.92,South,176,0.0,0.0,99,0.00,,,0.10,weatherlink.com 1.10,2013-09-03 09:42:00,
2013-09-03 05:57:00,65.3,65.0,29.93,South,176,0.0,0.0,99,0.00,,,0.10,weatherlink.com 1.10,2013-09-03 09:57:00,
2013-09-03 06:12:00,65.4,65.0,29.93,South,176,0.0,0.0,99,0.00,,,0.10,weatherlink.com 1.10,2013-09-03 10:12:00,
2013-09-03 06:27:00,65.2,65.0,29.94,South,176,0.0,0.0,99,0.00,,,0.10,weatherlink.com 1.10,2013-09-03 10:27:00,
2013-09-03 06:42:00,65.3,65.0,29.95,South,181,0.0,2.0,99,0.00,,,0.10,weatherlink.com 1.10,2013-09-03 10:42:00,
2013-09-03 06:57:00,65.5,65.0,29.95,South,181,0.0,1.0,99,0.00,,,0.10,weatherlink.com 1.10,2013-09-03 10:57:00,
2013-09-03 07:12:00,65.6,66.0,29.96,South,181,0.0,1.0,100,0.00,,,0.10,weatherlink.com 1.10,2013-09-03 11:12:00,
2013-09-03 07:27:00,65.7,66.0,29.96,South,181,0.0,1.0,100,0.00,,,0.10,weatherlink.com 1.10,2013-09-03 11:27:00,
2013-09-03 07:42:00,65.9,66.0,29.96,South,181,0.0,0.0,99,0.00,,,0.10,weatherlink.com 1.10,2013-09-03 11:42:00,
2013-09-03 07:57:00,66.5,67.0,29.96,South,181,0.0,1.0,100,0.00,,,0.10,weatherlink.com 1.10,2013-09-03 11:57:00,
2013-09-03 08:12:00,66.7,67.0,29.97,South,181,0.0,0.0,100,0.00,,,0.10,weatherlink.com 1.10,2013-09-03 12:12:00,
2013-09-03 08:27:00,66.6,66.0,29.97,South,181,0.0,1.0,99,0.00,,,0.10,weatherlink.com 1.10,2013-09-03 12:27:00,
2013-09-03 08:42:00,66.7,66.0,29.97,NE,46,0.0,0.0,99,0.00,,,0.10,weatherlink.com 1.10,2013-09-03 12:42:00,
2013-09-03 08:57:00,66.5,66.0,29.98,SSE,153,0.0,2.0,99,0.00,,,0.10,weatherlink.com 1.10,2013-09-03 12:57:00,
2013-09-03 09:12:00,66.6,66.0,29.98,SSE,153,0.0,1.0,99,0.00,,,0.10,weatherlink.com 1.10,2013-09-03 13:12:00,
2013-09-03 09:27:00,67.0,67.0,29.98,SSE,155,0.0,1.0,99,0.00,,,0.10,weatherlink.com 1.10,2013-09-03 13:27:00,
2013-09-03 09:42:00,67.2,67.0,29.98,SSE,153,1.0,2.0,99,0.00,,,0.10,weatherlink.com 1.10,2013-09-03 13:42:00,
2013-09-03 09:57:00,67.5,67.0,29.98,NNE,16,0.0,3.0,99,0.00,,,0.10,weatherlink.com 1.10,2013-09-03 13:57:00,
2013-09-03 10:12:00,68.5,68.0,29.98,SW,225,1.0,4.0,97,0.00,,,0.10,weatherlink.com 1.10,2013-09-03 14:12:00,
2013-09-03 10:27:00,69.4,67.0,29.98,SW,231,0.0,1.0,93,0.00,,,0.10,weatherlink.com 1.10,2013-09-03 14:27:00,
2013-09-03 10:42:00,69.3,67.0,29.98,South,180,1.0,4.0,91,0.00,,,0.10,weatherlink.com 1.10,2013-09-03 14:42:00,
2013-09-03 10:57:00,68.8,67.0,29.99,SSE,158,0.0,3.0,93,0.00,,,0.00,weatherlink.com 1.10,2013-09-03 14:57:00,
2013-09-03 11:12:00,68.8,67.0,29.99,West,272,3.0,3.0,93,0.00,,,0.00,weatherlink.com 1.10,2013-09-03 15:12:00,
2013-09-03 11:27:00,68.1,66.0,29.99,West,272,0.0,3.0,93,0.00,,,0.00,weatherlink.com 1.10,2013-09-03 15:27:00,
2013-09-03 11:42:00,67.9,66.0,29.99,West,272,0.0,1.0,94,0.00,,,0.00,weatherlink.com 1.10,2013-09-03 15:42:00,
2013-09-03 11:57:00,67.8,66.0,29.98,West,272,0.0,2.0,95,0.00,,,0.00,weatherlink.com 1.10,2013-09-03 15:57:00,
2013-09-03 12:12:00,68.0,66.0,29.98,SSW,203,0.0,5.0,94,0.00,,,0.00,weatherlink.com 1.10,2013-09-03 16:12:00,
2013-09-03 12:27:00,68.5,67.0,29.98,NNE,24,2.0,4.0,93,0.00,,,0.00,weatherlink.com 1.10,2013-09-03 16:27:00,
2013-09-03 12:42:00,69.5,67.0,29.98,North,351,1.0,5.0,90,0.00,,,0.00,weatherlink.com 1.10,2013-09-03 16:42:00,
2013-09-03 12:57:00,70.0,67.0,29.99,West,281,1.0,4.0,89,0.00,,,0.00,weatherlink.com 1.10,2013-09-03 16:57:00,
2013-09-03 13:12:00,71.1,68.0,29.99,NW,307,0.0,2.0,89,0.00,,,0.00,weatherlink.com 1.10,2013-09-03 17:12:00,
2013-09-03 13:27:00,72.4,67.0,29.98,West,277,0.0,2.0,84,0.00,,,0.00,weatherlink.com 1.10,2013-09-03 17:27:00,
2013-09-03 13:42:00,74.1,68.0,29.98,West,276,0.0,2.0,82,0.00,,,0.00,weatherlink.com 1.10,2013-09-03 17:42:00,
2013-09-03 13:57:00,74.2,68.0,29.97,West,275,0.0,2.0,80,0.00,,,0.00,weatherlink.com 1.10,2013-09-03 17:57:00,
2013-09-03 14:12:00,73.4,68.0,29.97,NW,321,0.0,2.0,83,0.01,,,0.01,weatherlink.com 1.10,2013-09-03 18:12:00,
2013-09-03 14:27:00,74.8,64.0,29.96,ENE,68,1.0,7.0,69,0.01,,,0.01,weatherlink.com 1.10,2013-09-03 18:27:00,
2013-09-03 14:43:00,77.1,66.0,29.96,SSE,153,2.0,4.0,68,0.01,,,0.01,weatherlink.com 1.10,2013-09-03 18:43:00,
2013-09-03 14:58:00,77.6,63.0,29.96,South,169,0.0,4.0,61,0.00,,,0.01,weatherlink.com 1.10,2013-09-03 18:58:00,
2013-09-03 15:13:00,79.0,63.0,29.96,East,79,1.0,4.0,59,0.00,,,0.01,weatherlink.com 1.10,2013-09-03 19:13:00,
2013-09-03 15:28:00,78.7,67.0,29.96,South,188,2.0,2.0,68,0.00,,,0.01,weatherlink.com 1.10,2013-09-03 19:28:00,
2013-09-03 15:43:00,78.2,63.0,29.96,SSW,199,1.0,5.0,60,0.00,,,0.01,weatherlink.com 1.10,2013-09-03 19:43:00,
2013-09-03 15:58:00,77.3,61.0,29.96,SSE,165,1.0,4.0,58,0.00,,,0.01,weatherlink.com 1.10,2013-09-03 19:58:00,
2013-09-03 16:13:00,77.0,61.0,29.96,NNW,346,0.0,6.0,59,0.00,,,0.01,weatherlink.com 1.10,2013-09-03 20:13:00,
2013-09-03 16:28:00,77.9,59.0,29.96,East,93,1.0,11.0,53,0.00,,,0.01,weatherlink.com 1.10,2013-09-03 20:28:00,
2013-09-03 16:43:00,76.8,59.0,29.97,South,181,1.0,9.0,54,0.00,,,0.01,weatherlink.com 1.10,2013-09-03 20:43:00,
2013-09-03 16:58:00,77.6,61.0,29.97,West,271,0.0,5.0,56,0.00,,,0.01,weatherlink.com 1.10,2013-09-03 20:58:00,
2013-09-03 17:13:00,77.3,57.0,29.98,South,190,5.0,7.0,50,0.00,,,0.01,weatherlink.com 1.10,2013-09-03 21:13:00,
2013-09-03 17:28:00,75.9,61.0,29.98,South,174,0.0,3.0,60,0.00,,,0.01,weatherlink.com 1.10,2013-09-03 21:28:00,
2013-09-03 17:43:00,74.5,63.0,29.98,NW,312,0.0,3.0,68,0.00,,,0.01,weatherlink.com 1.10,2013-09-03 21:43:00,
2013-09-03 17:58:00,73.2,59.0,29.99,West,272,2.0,8.0,62,0.00,,,0.01,weatherlink.com 1.10,2013-09-03 21:58:00,
2013-09-03 18:13:00,72.1,58.0,29.99,WSW,248,4.0,4.0,62,0.00,,,0.01,weatherlink.com 1.10,2013-09-03 22:13:00,
2013-09-03 18:28:00,70.9,58.0,30.00,SSW,200,0.0,6.0,64,0.00,,,0.01,weatherlink.com 1.10,2013-09-03 22:28:00,
2013-09-03 18:43:00,70.1,59.0,30.00,WSW,255,2.0,3.0,68,0.00,,,0.01,weatherlink.com 1.10,2013-09-03 22:43:00,
2013-09-03 18:58:00,69.0,60.0,30.00,WSW,250,0.0,2.0,72,0.00,,,0.01,weatherlink.com 1.10,2013-09-03 22:58:00,
2013-09-03 19:13:00,67.8,59.0,30.01,WSW,250,0.0,2.0,74,0.00,,,0.01,weatherlink.com 1.10,2013-09-03 23:13:00,
2013-09-03 19:28:00,67.2,59.0,30.01,WNW,286,0.0,4.0,76,0.00,,,0.01,weatherlink.com 1.10,2013-09-03 23:28:00,
2013-09-03 19:43:00,66.7,60.0,30.02,ENE,74,3.0,3.0,79,0.00,,,0.01,weatherlink.com 1.10,2013-09-03 23:43:00,
2013-09-03 19:58:00,66.5,59.0,30.03,NNW,335,1.0,5.0,78,0.00,,,0.01,weatherlink.com 1.10,2013-09-03 23:58:00,
2013-09-03 20:13:00,66.6,58.0,30.03,SSW,192,1.0,7.0,74,0.00,,,0.01,weatherlink.com 1.10,2013-09-04 00:13:00,
2013-09-03 20:28:00,66.6,58.0,30.04,SW,226,3.0,5.0,75,0.00,,,0.01,weatherlink.com 1.10,2013-09-04 00:28:00,
2013-09-03 20:43:00,66.1,58.0,30.04,SW,223,1.0,3.0,76,0.00,,,0.01,weatherlink.com 1.10,2013-09-04 00:43:00,
2013-09-03 20:58:00,65.4,59.0,30.05,SW,231,1.0,2.0,79,0.00,,,0.01,weatherlink.com 1.10,2013-09-04 00:58:00,
2013-09-03 21:13:00,64.7,59.0,30.05,West,265,1.0,2.0,81,0.00,,,0.01,weatherlink.com 1.10,2013-09-04 01:13:00,
2013-09-03 21:28:00,63.9,58.0,30.06,West,265,0.0,2.0,82,0.00,,,0.01,weatherlink.com 1.10,2013-09-04 01:28:00,
2013-09-03 21:43:00,63.6,58.0,30.06,WSW,250,0.0,2.0,81,0.00,,,0.01,weatherlink.com 1.10,2013-09-04 01:43:00,
2013-09-03 21:58:00,63.5,58.0,30.06,West,273,0.0,2.0,81,0.00,,,0.01,weatherlink.com 1.10,2013-09-04 01:58:00,
2013-09-03 22:13:00,63.4,57.0,30.06,SSW,196,2.0,4.0,80,0.00,,,0.01,weatherlink.com 1.10,2013-09-04 02:13:00,
2013-09-03 22:28:00,63.9,57.0,30.06,SW,225,1.0,3.0,79,0.00,,,0.01,weatherlink.com 1.10,2013-09-04 02:28:00,
2013-09-03 22:43:00,63.6,58.0,30.07,ESE,105,0.0,3.0,81,0.00,,,0.01,weatherlink.com 1.10,2013-09-04 02:43:00,
2013-09-03 22:58:00,63.1,58.0,30.07,South,186,1.0,3.0,84,0.00,,,0.01,weatherlink.com 1.10,2013-09-04 02:58:00,
2013-09-03 23:13:00,62.7,58.0,30.07,SSW,205,2.0,6.0,84,0.00,,,0.01,weatherlink.com 1.10,2013-09-04 03:13:00,
2013-09-03 23:28:00,62.4,58.0,30.07,NW,317,0.0,4.0,84,0.00,,,0.01,weatherlink.com 1.10,2013-09-04 03:28:00,
2013-09-03 23:44:00,62.1,58.0,30.07,SW,219,0.0,3.0,85,0.00,,,0.01,weatherlink.com 1.10,2013-09-04 03:44:00,
2013-09-03 23:59:00,61.8,58.0,30.07,SSW,202,0.0,3.0,86,0.00,,,0.01,weatherlink.com 1.10,2013-09-04 03:59:00,